Accueil
METAR-TAF:

METAR-TAF

Aéroports :

Van, Turquie

latitude: 38-27N, longitude: 043-19E, altitude: 1667 m

Observation

Le bulletin a été fait il y a 48 minutes, à 06:50 UTC
Vent 5 kt de nord-est
Température 8°C
Humidité 71%
Pression 1018 hPa
Visibilité 10 km ou plus
Quelques nuages à une hauteur de 3500 ft
Nuages épars à une hauteur de 7000 ft

METAR: LTCI 160650Z 04005KT 9999 FEW035 SCT070 08/03 Q1018 NOSIG

Heure: 10:38 (07:38 UTC)

Prévision

Le bulletin a été fait il y a 2 heures et 58 minutes, à 04:40 UTC
Prévision valable du 16 à 06 UTC au 16 à 15 UTC
Vent 8 kt de sud/sud-est
Visibilité 10 km ou plus
Nuages épars à une hauteur de 3500 ft
Nuages fragmentés à une hauteur de 7000 ft
Evoluant progressivement
du 16 à 06 UTC au 16 à 08 UTC
Vent 10 kt de ouest

TAF: LTCI 160440Z 1606/1615 15008KT 9999 SCT035 BKN070 BECMG 1606/1608 28010KT

Observations et prévisions météorologiques de plus de 4000 aéroports (messages METAR et TAF).

Les stations disponibles sont représentées par des disques jaunes et rouges sur la carte.

Passer la souris dessus pour voir le nom de la station.

Cliquer dessus pour voir les observations et prévisions météorologiques.

Pour changer de carte: cliquez sur les boutons verts avec une croix noire pour zoomer, sur le bouton vert avec un tiret pour effectuer un zoom arrière, ou sur les flèches vertes pour les cartes adjacentes.


METAR-TAF: